createdAt,value
2019-03-26T00:01:12.175Z,2.97
2019-03-26T00:03:41.629Z,2.87
2019-03-26T00:06:11.077Z,2.60
2019-03-26T00:08:40.638Z,2.67
2019-03-26T00:11:10.288Z,2.40
2019-03-26T00:13:39.686Z,2.40
2019-03-26T00:16:09.052Z,2.77
2019-03-26T00:18:38.421Z,3.00
2019-03-26T00:21:08.107Z,2.67
2019-03-26T00:23:37.834Z,2.30
2019-03-26T00:26:07.235Z,2.80
2019-03-26T00:28:36.985Z,2.63
2019-03-26T00:31:06.384Z,2.00
2019-03-26T00:33:36.902Z,2.50
2019-03-26T00:36:06.516Z,2.10
2019-03-26T00:38:36.015Z,2.83
2019-03-26T00:41:17.183Z,2.20
2019-03-26T00:43:46.537Z,2.33
2019-03-26T00:46:15.911Z,2.70
2019-03-26T00:48:45.448Z,3.47
2019-03-26T00:51:15.027Z,3.93
2019-03-26T00:53:44.382Z,4.53
2019-03-26T00:56:14.966Z,3.70
2019-03-26T00:58:44.308Z,3.87
2019-03-26T01:01:16.036Z,4.93
2019-03-26T01:03:45.442Z,5.07
2019-03-26T01:17:09.656Z,3.13
2019-03-26T01:19:39.171Z,3.50
2019-03-26T01:22:08.603Z,3.00
2019-03-26T01:24:38.030Z,2.60
2019-03-26T01:27:07.484Z,2.47
2019-03-26T01:29:36.808Z,2.47
2019-03-26T01:32:06.317Z,2.53
2019-03-26T01:34:45.454Z,2.50
2019-03-26T01:37:07.447Z,2.80
2019-03-26T01:39:36.930Z,2.40
2019-03-26T01:42:07.484Z,2.90
2019-03-26T01:44:37.057Z,2.53
2019-03-26T01:47:06.402Z,2.30
2019-03-26T01:49:35.816Z,2.60
2019-03-26T01:52:05.249Z,2.77
2019-03-26T01:54:34.604Z,1.77
2019-03-26T01:57:04.024Z,2.77
2019-03-26T01:59:33.373Z,2.57
2019-03-26T02:02:02.866Z,2.17
2019-03-26T02:04:32.280Z,2.50
2019-03-26T02:07:01.694Z,2.37
2019-03-26T02:09:31.134Z,2.37
2019-03-26T02:12:01.616Z,2.63
2019-03-26T02:14:30.973Z,2.83
2019-03-26T02:17:00.368Z,3.27
2019-03-26T02:19:29.920Z,2.73
2019-03-26T02:21:59.285Z,3.07
2019-03-26T02:24:28.825Z,3.70
2019-03-26T02:26:58.261Z,2.57
2019-03-26T02:29:27.669Z,3.00
2019-03-26T02:31:57.268Z,2.70
2019-03-26T02:34:26.710Z,2.43
2019-03-26T02:36:56.069Z,2.50
2019-03-26T02:39:25.536Z,2.10
2019-03-26T02:41:54.898Z,3.27
2019-03-26T02:44:24.302Z,2.57
2019-03-26T02:46:53.757Z,2.50
2019-03-26T02:49:23.092Z,2.17
2019-03-26T02:51:52.452Z,2.27
2019-03-26T02:54:21.903Z,2.30
2019-03-26T02:56:51.253Z,2.70
2019-03-26T02:59:20.646Z,2.70
2019-03-26T03:01:50.008Z,2.37
2019-03-26T03:04:19.446Z,3.07
2019-03-26T03:06:48.931Z,2.40
2019-03-26T03:09:18.310Z,2.63
2019-03-26T03:11:47.748Z,2.10
2019-03-26T03:14:17.204Z,2.20
2019-03-26T03:16:46.600Z,2.80
2019-03-26T03:19:16.482Z,2.60
2019-03-26T03:21:46.047Z,2.10
2019-03-26T03:24:15.363Z,2.60
2019-03-26T03:26:44.717Z,2.03
2019-03-26T03:29:14.047Z,1.90
2019-03-26T03:31:43.406Z,2.27
2019-03-26T03:34:12.869Z,2.00
2019-03-26T03:36:42.759Z,2.53
2019-03-26T03:39:12.338Z,2.47
2019-03-26T03:41:42.959Z,2.30
2019-03-26T03:44:12.397Z,2.43
2019-03-26T03:46:44.049Z,2.70
2019-03-26T03:49:21.091Z,3.10
2019-03-26T03:51:51.411Z,2.63
2019-03-26T03:54:21.963Z,2.20
2019-03-26T03:57:03.281Z,3.07
2019-03-26T03:59:32.810Z,2.50
2019-03-26T04:02:02.307Z,2.20
2019-03-26T04:04:31.649Z,2.10
2019-03-26T04:07:01.020Z,2.43
2019-03-26T04:09:30.443Z,1.80
2019-03-26T04:11:59.922Z,2.50
2019-03-26T04:14:29.325Z,1.83
2019-03-26T04:16:59.018Z,3.23
2019-03-26T04:19:28.437Z,2.33
2019-03-26T04:21:57.789Z,1.87
2019-03-26T04:24:27.329Z,2.10
2019-03-26T04:26:56.854Z,2.27
2019-03-26T04:29:26.161Z,1.87
2019-03-26T04:31:55.525Z,2.03
2019-03-26T04:34:25.014Z,2.03
2019-03-26T04:36:54.492Z,2.40
2019-03-26T04:39:23.867Z,2.53
2019-03-26T04:41:53.423Z,2.00
2019-03-26T04:44:22.817Z,1.97
2019-03-26T04:46:52.217Z,1.80
2019-03-26T04:49:21.607Z,2.50
2019-03-26T04:51:51.135Z,1.83
2019-03-26T04:54:20.481Z,1.83
2019-03-26T04:56:49.884Z,2.40
2019-03-26T04:59:19.365Z,2.43
2019-03-26T05:01:48.762Z,2.07
2019-03-26T05:04:18.117Z,1.97
2019-03-26T05:06:47.631Z,2.30
2019-03-26T05:09:17.250Z,1.87
2019-03-26T05:11:46.818Z,2.00
2019-03-26T05:14:16.177Z,2.23
2019-03-26T05:16:47.142Z,2.17
2019-03-26T05:19:16.699Z,1.70
2019-03-26T05:21:46.167Z,2.00
2019-03-26T05:24:15.527Z,2.03
2019-03-26T05:26:44.851Z,1.73
2019-03-26T05:29:14.287Z,1.77
2019-03-26T05:31:43.656Z,1.50
2019-03-26T05:34:13.120Z,1.73
2019-03-26T05:36:51.158Z,1.93
2019-03-26T05:39:13.799Z,1.30
2019-03-26T05:41:44.446Z,1.60
2019-03-26T05:44:13.947Z,2.00
2019-03-26T05:46:43.403Z,1.50
2019-03-26T05:49:12.824Z,1.10
2019-03-26T05:51:42.190Z,1.30
2019-03-26T05:54:12.082Z,1.40
2019-03-26T05:56:43.119Z,1.63
2019-03-26T05:59:12.898Z,1.80
2019-03-26T06:01:42.461Z,1.20
2019-03-26T06:04:12.160Z,1.87
2019-03-26T06:06:43.855Z,1.30
2019-03-26T06:09:13.445Z,1.60
2019-03-26T06:11:42.951Z,1.50
2019-03-26T06:14:12.301Z,1.67
2019-03-26T06:16:41.867Z,1.40
2019-03-26T06:19:11.284Z,1.60
2019-03-26T06:21:40.626Z,1.60
2019-03-26T06:24:10.010Z,1.93
2019-03-26T06:26:39.401Z,1.40
2019-03-26T06:29:08.757Z,1.70
2019-03-26T06:31:38.219Z,1.90
2019-03-26T06:34:10.398Z,2.10
2019-03-26T06:36:39.254Z,1.70
2019-03-26T06:39:09.424Z,1.63
2019-03-26T06:41:39.867Z,2.13
2019-03-26T06:44:09.374Z,1.80
2019-03-26T06:46:38.833Z,2.17
2019-03-26T06:49:08.198Z,1.50
2019-03-26T06:51:38.021Z,1.70
2019-03-26T06:54:07.419Z,1.60
2019-03-26T06:56:36.831Z,1.67
2019-03-26T06:59:06.242Z,1.60
2019-03-26T07:01:35.678Z,1.97
2019-03-26T07:04:05.287Z,1.70
2019-03-26T07:06:34.688Z,2.20
2019-03-26T07:09:05.101Z,2.30
2019-03-26T07:11:34.448Z,1.73
2019-03-26T07:14:03.996Z,1.63
2019-03-26T07:16:33.469Z,2.00
2019-03-26T07:19:02.877Z,1.60
2019-03-26T07:21:32.556Z,1.53
2019-03-26T07:24:02.022Z,1.33
2019-03-26T07:26:31.365Z,1.60
2019-03-26T07:29:00.858Z,1.70
2019-03-26T07:31:30.601Z,2.27
2019-03-26T07:34:00.584Z,2.00
2019-03-26T07:36:29.910Z,1.63
2019-03-26T07:38:59.260Z,2.00
2019-03-26T07:41:28.614Z,1.87
2019-03-26T07:43:58.027Z,1.47
2019-03-26T07:46:27.404Z,1.80
2019-03-26T07:48:56.762Z,1.50
2019-03-26T07:51:26.220Z,1.90
2019-03-26T07:53:55.573Z,2.20
2019-03-26T07:56:25.004Z,1.80
2019-03-26T07:58:55.190Z,1.63
2019-03-26T08:01:24.618Z,1.57
2019-03-26T08:03:54.138Z,2.20
2019-03-26T08:06:23.533Z,2.00
2019-03-26T08:08:52.954Z,2.23
2019-03-26T08:11:22.335Z,1.70
2019-03-26T08:13:51.700Z,1.37
2019-03-26T08:16:21.067Z,1.73
2019-03-26T08:18:50.412Z,2.10
2019-03-26T08:21:20.137Z,1.97
2019-03-26T08:23:49.500Z,1.67
2019-03-26T08:26:18.845Z,2.00
2019-03-26T08:28:48.275Z,1.70
2019-03-26T08:31:17.629Z,1.70
2019-03-26T08:33:47.006Z,2.00
2019-03-26T08:36:16.779Z,1.83
2019-03-26T08:38:46.118Z,1.90
2019-03-26T08:41:15.448Z,1.83
2019-03-26T08:43:44.873Z,1.57
2019-03-26T08:46:14.214Z,1.70
2019-03-26T08:48:43.550Z,1.73
2019-03-26T08:51:13.061Z,1.60
2019-03-26T08:53:42.416Z,1.60
2019-03-26T08:56:11.763Z,1.80
2019-03-26T08:58:41.123Z,1.60
2019-03-26T09:01:10.583Z,1.63
2019-03-26T09:03:39.967Z,1.70
2019-03-26T09:06:09.420Z,1.73
2019-03-26T09:08:38.813Z,1.27
2019-03-26T09:11:08.224Z,1.33
2019-03-26T09:13:37.642Z,1.30
2019-03-26T09:16:07.075Z,1.17
2019-03-26T09:18:36.448Z,1.20
2019-03-26T09:21:05.853Z,1.43
2019-03-26T09:23:35.233Z,0.90
2019-03-26T09:26:04.662Z,1.30
2019-03-26T09:28:34.002Z,1.20
2019-03-26T09:31:03.362Z,1.30
2019-03-26T09:33:32.714Z,1.33
2019-03-26T09:36:02.283Z,1.80
2019-03-26T09:38:38.791Z,1.50
2019-03-26T09:41:02.825Z,1.13
2019-03-26T09:43:32.164Z,1.20
2019-03-26T09:46:01.706Z,1.37
2019-03-26T09:48:31.046Z,1.50
2019-03-26T09:51:00.396Z,1.10
2019-03-26T09:53:29.778Z,1.27
2019-03-26T09:55:59.151Z,1.00
2019-03-26T09:58:28.598Z,1.10
2019-03-26T10:00:57.954Z,1.20
2019-03-26T10:03:27.275Z,1.00
2019-03-26T10:05:56.857Z,1.13
2019-03-26T10:08:26.202Z,1.23
2019-03-26T10:10:55.544Z,1.20
2019-03-26T10:13:25.038Z,1.40
2019-03-26T10:15:54.462Z,1.10
2019-03-26T10:18:23.796Z,1.10
2019-03-26T10:20:53.229Z,1.37
2019-03-26T10:23:22.649Z,1.20
2019-03-26T10:25:52.055Z,0.97
2019-03-26T10:28:21.497Z,1.23
2019-03-26T10:30:51.017Z,1.00
2019-03-26T10:33:20.382Z,1.00
2019-03-26T10:35:49.810Z,1.23
2019-03-26T10:38:19.689Z,1.10
2019-03-26T10:40:52.158Z,1.30
2019-03-26T10:43:21.496Z,1.27
2019-03-26T10:45:50.839Z,1.40
2019-03-26T10:48:20.263Z,0.87
2019-03-26T10:50:49.769Z,1.30
2019-03-26T10:53:19.141Z,1.03
2019-03-26T10:55:48.560Z,1.30
2019-03-26T10:58:17.952Z,1.20
2019-03-26T11:00:47.306Z,1.03
2019-03-26T11:03:16.635Z,1.00
2019-03-26T11:05:46.013Z,1.40
2019-03-26T11:08:15.366Z,1.67
2019-03-26T11:10:44.832Z,1.30
2019-03-26T11:13:14.257Z,1.20
2019-03-26T11:15:43.780Z,1.17
2019-03-26T11:18:13.107Z,1.00
2019-03-26T11:20:42.731Z,1.20
2019-03-26T11:23:12.305Z,1.23
2019-03-26T11:25:42.195Z,0.97
2019-03-26T11:28:11.615Z,1.10
2019-03-26T11:30:41.416Z,1.10
2019-03-26T11:33:10.899Z,1.63
2019-03-26T11:35:40.461Z,1.00
2019-03-26T11:38:09.980Z,1.07
2019-03-26T11:40:39.399Z,1.00
2019-03-26T11:43:08.803Z,1.33
2019-03-26T11:45:38.230Z,1.00
2019-03-26T11:48:07.616Z,1.13
2019-03-26T11:50:37.227Z,1.03
2019-03-26T11:53:07.042Z,1.00
2019-03-26T11:55:36.429Z,1.07
2019-03-26T11:58:05.835Z,0.80
2019-03-26T12:00:37.100Z,0.90
2019-03-26T12:03:06.644Z,0.87
2019-03-26T12:05:37.280Z,0.80
2019-03-26T12:08:06.628Z,0.70
2019-03-26T12:10:36.052Z,0.70
2019-03-26T12:13:05.583Z,0.83
2019-03-26T12:15:35.047Z,1.03
2019-03-26T12:18:04.527Z,1.03
2019-03-26T12:20:34.249Z,1.10
2019-03-26T12:23:03.593Z,0.80
2019-03-26T12:25:32.971Z,0.80
2019-03-26T12:28:02.652Z,1.00
2019-03-26T12:30:34.877Z,0.80
2019-03-26T12:33:04.861Z,0.87
2019-03-26T12:35:34.572Z,0.80
2019-03-26T12:38:15.441Z,0.80
2019-03-26T12:40:45.746Z,0.90
2019-03-26T12:43:16.265Z,1.20
2019-03-26T12:45:45.778Z,0.90
2019-03-26T12:48:15.182Z,0.93
2019-03-26T12:50:45.057Z,1.20
2019-03-26T12:53:14.452Z,0.90
2019-03-26T12:55:44.273Z,1.03
2019-03-26T12:58:13.682Z,0.90
2019-03-26T13:00:43.638Z,0.67
2019-03-26T13:03:13.095Z,0.90
2019-03-26T13:05:42.841Z,0.70
2019-03-26T13:08:12.329Z,0.90
2019-03-26T13:10:52.799Z,1.00
2019-03-26T13:13:13.245Z,1.10
2019-03-26T13:15:44.265Z,1.30
2019-03-26T13:18:13.747Z,0.90
2019-03-26T13:20:43.502Z,1.10
2019-03-26T13:23:13.372Z,1.17
2019-03-26T13:25:43.578Z,0.93
2019-03-26T13:28:13.367Z,1.30
2019-03-26T13:30:43.108Z,0.97
2019-03-26T13:33:12.692Z,1.20
2019-03-26T13:35:42.099Z,0.80
2019-03-26T13:38:11.669Z,1.17
2019-03-26T13:40:41.122Z,1.00
2019-03-26T13:43:11.537Z,0.90
2019-03-26T13:45:41.146Z,1.10
2019-03-26T13:48:10.511Z,1.20
2019-03-26T13:50:39.944Z,1.63
2019-03-26T13:53:09.375Z,0.90
2019-03-26T13:55:38.806Z,1.10
2019-03-26T13:58:08.140Z,1.40
2019-03-26T14:00:39.805Z,1.07
2019-03-26T14:03:09.425Z,1.30
2019-03-26T14:05:38.963Z,0.97
2019-03-26T14:08:08.376Z,1.60
2019-03-26T14:10:41.219Z,1.30
2019-03-26T14:13:09.252Z,1.30
2019-03-26T14:15:58.068Z,1.00
2019-03-26T14:18:28.181Z,1.33
2019-03-26T14:21:00.905Z,1.33
2019-03-26T14:23:31.686Z,1.10
2019-03-26T14:26:01.060Z,1.00
2019-03-26T14:28:30.487Z,1.13
2019-03-26T14:30:59.950Z,1.00
2019-03-26T14:33:29.313Z,1.17
2019-03-26T14:35:58.713Z,1.33
2019-03-26T14:38:28.148Z,1.13
2019-03-26T14:40:57.480Z,0.97
2019-03-26T14:43:26.832Z,1.33
2019-03-26T14:45:56.239Z,1.10
2019-03-26T14:48:25.704Z,1.37
2019-03-26T14:50:55.288Z,1.13
2019-03-26T14:53:24.649Z,1.23
2019-03-26T14:55:54.057Z,1.33
2019-03-26T14:58:23.498Z,1.27
2019-03-26T15:00:52.847Z,1.20
2019-03-26T15:03:22.221Z,1.20
2019-03-26T15:05:55.076Z,1.00
2019-03-26T15:08:26.498Z,1.20
2019-03-26T15:11:07.506Z,1.20
2019-03-26T15:13:27.327Z,1.00
2019-03-26T15:15:56.703Z,1.30
2019-03-26T15:18:26.033Z,1.13
2019-03-26T15:20:55.467Z,1.20
2019-03-26T15:23:24.938Z,1.10
2019-03-26T15:26:00.836Z,1.13
2019-03-26T15:28:29.209Z,1.20
2019-03-26T15:31:19.278Z,1.40
2019-03-26T15:33:48.881Z,1.40
2019-03-26T15:36:18.318Z,1.30
2019-03-26T15:38:49.670Z,1.20
2019-03-26T15:41:21.772Z,1.77
2019-03-26T15:43:53.770Z,1.10
2019-03-26T15:46:23.178Z,0.90
2019-03-26T15:48:52.576Z,0.90
2019-03-26T15:51:22.100Z,0.90
2019-03-26T15:53:51.483Z,1.10
2019-03-26T15:56:20.965Z,1.13
2019-03-26T15:58:50.746Z,0.80
2019-03-26T16:01:20.234Z,0.90
2019-03-26T16:03:49.646Z,0.80
2019-03-26T16:06:19.042Z,0.70
2019-03-26T16:08:48.677Z,0.70
2019-03-26T16:11:18.031Z,0.97
2019-03-26T16:13:47.381Z,0.70
2019-03-26T16:16:16.704Z,0.60
2019-03-26T16:18:46.730Z,0.50
2019-03-26T16:21:16.150Z,0.50
2019-03-26T16:23:45.469Z,0.50
2019-03-26T16:26:15.055Z,0.50
2019-03-26T16:28:45.975Z,0.43
2019-03-26T16:31:15.358Z,0.50
2019-03-26T16:36:20.526Z,0.57
2019-03-26T16:38:49.872Z,0.50
2019-03-26T16:41:19.201Z,0.60
2019-03-26T16:43:48.523Z,0.50
2019-03-26T16:46:17.902Z,0.50
2019-03-26T16:48:47.745Z,0.60
2019-03-26T16:51:17.171Z,0.70
2019-03-26T16:53:46.596Z,0.60
2019-03-26T16:56:16.093Z,0.50
2019-03-26T16:58:45.588Z,0.70
2019-03-26T17:01:17.862Z,0.60
2019-03-26T17:03:56.901Z,0.70
2019-03-26T17:06:36.535Z,0.87
2019-03-26T17:09:07.683Z,0.87
2019-03-26T17:11:37.170Z,1.30
2019-03-26T17:14:06.790Z,1.13
2019-03-26T17:16:37.760Z,1.20
2019-03-26T17:19:07.263Z,1.77
2019-03-26T17:21:36.695Z,1.40
2019-03-26T17:24:06.313Z,1.70
2019-03-26T17:26:35.765Z,1.80
2019-03-26T17:29:05.707Z,1.60
2019-03-26T17:31:35.571Z,1.60
2019-03-26T17:34:05.416Z,1.67
2019-03-26T17:36:35.002Z,1.50
2019-03-26T17:39:06.765Z,1.43
2019-03-26T17:41:39.463Z,1.37
2019-03-26T17:44:08.955Z,1.50
2019-03-26T17:46:39.969Z,1.30
2019-03-26T17:49:14.966Z,1.10
2019-03-26T17:51:45.347Z,1.40
2019-03-26T17:54:14.881Z,1.37
2019-03-26T17:56:47.251Z,1.30
2019-03-26T17:59:15.357Z,1.43
2019-03-26T18:01:44.751Z,1.40
2019-03-26T18:04:15.828Z,1.40
2019-03-26T18:06:45.301Z,1.30
2019-03-26T18:09:14.756Z,1.50
2019-03-26T18:11:44.087Z,1.50
2019-03-26T18:14:13.490Z,1.50
2019-03-26T18:16:42.881Z,2.23
2019-03-26T18:19:12.773Z,1.40
2019-03-26T18:21:51.432Z,1.57
2019-03-26T18:24:13.251Z,1.10
2019-03-26T18:26:42.668Z,1.30
2019-03-26T18:29:14.588Z,1.40
2019-03-26T18:31:43.867Z,1.10
2019-03-26T18:34:13.328Z,1.20
2019-03-26T18:36:44.109Z,1.33
2019-03-26T18:39:13.827Z,1.57
2019-03-26T18:41:43.331Z,1.20
2019-03-26T18:44:13.158Z,1.40
2019-03-26T18:46:42.668Z,1.30
2019-03-26T18:49:12.099Z,1.10
2019-03-26T18:51:41.562Z,1.33
2019-03-26T18:54:10.898Z,1.10
2019-03-26T18:56:40.219Z,1.30
2019-03-26T18:59:09.584Z,1.40
2019-03-26T19:01:39.132Z,1.53
2019-03-26T19:04:08.536Z,1.30
2019-03-26T19:06:37.935Z,1.60
2019-03-26T19:09:08.663Z,1.50
2019-03-26T19:11:38.084Z,1.90
2019-03-26T19:14:07.576Z,2.20
2019-03-26T19:16:36.984Z,2.13
2019-03-26T19:19:06.610Z,2.60
2019-03-26T19:21:35.942Z,2.53
2019-03-26T19:24:06.406Z,2.90
2019-03-26T19:26:46.858Z,3.13
2019-03-26T19:29:22.897Z,3.40
2019-03-26T19:31:52.192Z,4.00
2019-03-26T19:34:24.123Z,3.50
2019-03-26T19:36:53.557Z,4.13
2019-03-26T19:39:22.947Z,3.73
2019-03-26T19:41:52.488Z,4.17
2019-03-26T19:44:21.829Z,3.70
2019-03-26T19:46:51.706Z,3.97
2019-03-26T19:49:21.198Z,4.20
2019-03-26T19:51:50.651Z,3.80
2019-03-26T19:54:20.002Z,3.97
2019-03-26T19:56:50.289Z,4.23
2019-03-26T19:59:19.749Z,3.90
2019-03-26T20:01:49.402Z,4.20
2019-03-26T20:04:18.862Z,5.73
2019-03-26T20:06:48.494Z,5.17
2019-03-26T20:09:18.151Z,4.23
2019-03-26T20:11:47.745Z,4.50
2019-03-26T20:14:17.108Z,4.10
2019-03-26T20:16:46.785Z,4.50
2019-03-26T20:19:16.110Z,4.20
2019-03-26T20:21:45.558Z,4.13
2019-03-26T20:24:14.914Z,4.60
2019-03-26T20:26:44.516Z,4.17
2019-03-26T20:29:13.965Z,3.80
2019-03-26T20:31:43.516Z,3.47
2019-03-26T20:34:12.906Z,3.60
2019-03-26T20:36:42.536Z,3.90
2019-03-26T20:39:12.390Z,3.80
2019-03-26T20:41:41.817Z,4.07
2019-03-26T20:44:11.556Z,3.90
2019-03-26T20:46:41.097Z,3.53
2019-03-26T20:49:10.420Z,3.43
2019-03-26T20:51:39.866Z,4.40
2019-03-26T20:54:09.347Z,3.63
2019-03-26T20:56:40.920Z,4.17
2019-03-26T20:59:11.137Z,4.07
2019-03-26T21:01:40.497Z,3.77
2019-03-26T21:04:09.846Z,3.73
2019-03-26T21:06:39.290Z,4.13
2019-03-26T21:09:09.179Z,4.40
2019-03-26T21:11:38.694Z,4.23
2019-03-26T21:14:08.037Z,3.57
2019-03-26T21:16:37.640Z,3.80
2019-03-26T21:19:07.056Z,3.17
2019-03-26T21:21:36.476Z,3.80
2019-03-26T21:24:06.854Z,3.50
2019-03-26T21:26:36.499Z,4.17
2019-03-26T21:29:06.025Z,3.90
2019-03-26T21:31:35.849Z,4.40
2019-03-26T21:34:05.329Z,4.30
2019-03-26T21:36:34.779Z,4.00
2019-03-26T21:39:05.292Z,4.10
2019-03-26T21:41:36.896Z,4.10
2019-03-26T21:44:06.437Z,4.00
2019-03-26T21:46:35.945Z,4.23
2019-03-26T21:49:05.586Z,4.30
2019-03-26T21:51:35.094Z,4.47
2019-03-26T21:54:04.697Z,4.30
2019-03-26T21:56:37.029Z,4.47
2019-03-26T21:59:10.712Z,4.70
2019-03-26T22:01:41.030Z,5.07
2019-03-26T22:04:10.348Z,5.17
2019-03-26T22:06:39.771Z,4.27
2019-03-26T22:09:09.475Z,4.73
2019-03-26T22:11:49.199Z,4.13
2019-03-26T22:14:18.068Z,4.00
2019-03-26T22:16:41.437Z,4.30
2019-03-26T22:19:10.794Z,4.17
2019-03-26T22:21:40.302Z,3.60
2019-03-26T22:24:09.694Z,3.63
2019-03-26T22:26:39.211Z,3.90
2019-03-26T22:29:08.740Z,3.70
2019-03-26T22:31:38.495Z,3.00
2019-03-26T22:34:07.877Z,3.80
2019-03-26T22:36:37.246Z,3.20
2019-03-26T22:39:08.131Z,3.70
2019-03-26T22:41:37.644Z,3.47
2019-03-26T22:44:07.161Z,3.47
2019-03-26T22:46:36.533Z,3.10
2019-03-26T22:49:05.906Z,2.90
2019-03-26T22:51:35.540Z,2.73
2019-03-26T22:54:04.935Z,3.60
2019-03-26T22:56:34.459Z,2.87
2019-03-26T22:59:04.018Z,3.70
2019-03-26T23:01:33.525Z,3.50
2019-03-26T23:04:03.049Z,3.47
2019-03-26T23:06:32.893Z,3.90
2019-03-26T23:09:02.287Z,3.03
2019-03-26T23:11:31.980Z,3.20
2019-03-26T23:14:01.578Z,3.67
2019-03-26T23:16:31.105Z,3.00
2019-03-26T23:19:00.922Z,3.50
2019-03-26T23:21:30.251Z,3.40
2019-03-26T23:23:59.612Z,3.30
2019-03-26T23:26:29.402Z,3.17
2019-03-26T23:28:58.837Z,3.13
2019-03-26T23:31:28.319Z,2.60
2019-03-26T23:33:57.646Z,3.10
2019-03-26T23:36:27.006Z,2.60
2019-03-26T23:38:56.532Z,3.10
2019-03-26T23:41:25.927Z,3.07
2019-03-26T23:43:55.250Z,2.87
2019-03-26T23:46:24.679Z,3.13
2019-03-26T23:48:54.052Z,2.97
2019-03-26T23:51:23.404Z,2.93
2019-03-26T23:53:52.791Z,2.40
2019-03-26T23:56:22.323Z,2.50
2019-03-26T23:58:51.883Z,2.40
